Pine Galaxy — C6TT5 — position and weather

sailwx.info

Track history (hours):
 
Tides and Currents Weather Stations Pressure Air Temp Water Temp Dewpoint Dewpoint Depression Visibility Wind Speed Wind Dir Waves Ship Positions

Pine Galaxy

Last reported at 2017-Jul-01 15:48 UTC. Time now 2017-Dec-18 11:03 UTC.
Position N 31°53' E 120°54'.
Warning: this ship's position is months out of date.

Length 148 m; draft 5.4 m.

Type: Tanker. MMSI: 311772000.

Date/timePositionNaut miles runAvg speedWind from/ knotsBaromVisibWave heightAir tempDewpointWater temp
2017-Jul-01 15:48N 31°53' E 120°54'0 0.0
2017-Jul-01 15:18N 31°53' E 120°54'0 0.1
2017-Jul-01 14:46N 31°53' E 120°54'6 7.8
2017-Jul-01 14:00N 31°47' E 120°57'611.9
2017-Jul-01 13:29N 31°46' E 121°04'612.4
2017-Jul-01 13:00N 31°42' E 121°09'612.7
2017-Jul-01 12:30N 31°38' E 121°15'612.9
2017-Jul-01 12:00N 31°33' E 121°20'612.6
2017-Jul-01 11:30N 31°30' E 121°26'611.6
2017-Jul-01 11:00N 31°25' E 121°30'3 6.1
2017-Jul-01 10:30N 31°24' E 121°34'4 7.8
2017-Jul-01 10:00N 31°22' E 121°38'4 8.2
2017-Jul-01 09:30N 31°20' E 121°42'612.6
2017-Jul-01 09:01N 31°15' E 121°46'714.6
2017-Jul-01 08:31N 31°10' E 121°52'713.7
2017-Jul-01 08:00N 31°06' E 121°59'510.4
2017-Jul-01 07:30N 31°04' E 122°05'611.9
2017-Jul-01 07:00N 31°03' E 122°11'510.7
2017-Jul-01 06:30N 31°03' E 122°18'4 7.6
2017-Jul-01 06:00N 31°02' E 122°22'5 9.7
2017-Jul-01 05:29N 31°01' E 122°28'4 8.2
2017-Jul-01 04:59N 30°60' E 122°32'5 6.0
2017-Jul-01 04:04N 31°03' E 122°38'0 0.1
2017-Jul-01 03:58N 31°03' E 122°38'0 0.0
2017-Jun-30 19:40N 31°03' E 122°38'0 0.1
2017-Jun-30 18:40N 31°03' E 122°38'0 0.0
2017-Jun-30 15:16N 31°03' E 122°38'0 0.2
2017-Jun-30 14:52N 31°03' E 122°38'0 0.0
2017-Jun-30 14:28N 31°03' E 122°38'0 0.0
2017-Jun-30 13:55N 31°03' E 122°38'0 0.0
2017-Jun-30 13:28N 31°03' E 122°38'0 0.0
2017-Jun-30 12:58N 31°03' E 122°38'0 0.1
2017-Jun-30 11:28N 31°03' E 122°38'0 0.0
2017-Jun-30 10:58N 31°03' E 122°38'0 0.2
2017-Jun-30 10:23N 31°03' E 122°38'1 1.8
2017-Jun-30 10:00N 31°03' E 122°37'4 7.2
2017-Jun-30 09:30N 30°60' E 122°39'511.0
2017-Jun-30 09:00N 30°59' E 122°45'510.9
2017-Jun-30 08:30N 30°59' E 122°51'612.2
2017-Jun-30 07:58N 30°58' E 122°58'712.1
2017-Jun-30 07:23N 30°56' E 123°07'412.0
2017-Jun-30 07:00N 30°55' E 123°12'48 3.4
2017-Jun-29 16:46N 31°02' E 122°16'2 8.5
2017-Jun-29 16:30N 31°02' E 122°13'4 7.0
2017-Jun-29 15:59N 31°03' E 122°09'4 8.8
2017-Jun-29 15:29N 31°04' E 122°04'510.9
2017-Jun-29 15:00N 31°06' E 121°59'1312.8
2017-Jun-29 14:00N 31°14' E 121°47'714.2
2017-Jun-29 13:30N 31°19' E 121°42'611.4
2017-Jun-29 13:00N 31°23' E 121°36'5 9.7
2017-Jun-29 12:30N 31°25' E 121°31'511.0
2017-Jun-29 12:00N 31°29' E 121°27'612.5
2017-Jun-29 11:30N 31°32' E 121°21'713.5
2017-Jun-29 11:00N 31°38' E 121°15'713.6
2017-Jun-29 10:30N 31°42' E 121°09'712.9
2017-Jun-29 10:00N 31°46' E 121°03'712.2
2017-Jun-29 09:28N 31°48' E 120°56'7 0.3
2017-Jun-28 07:40N 31°46' E 121°03'413.5
2017-Jun-28 07:22N 31°43' E 121°07'513.0
2017-Jun-28 07:00N 31°41' E 121°12'612.7
2017-Jun-28 06:30N 31°36' E 121°17'612.4
2017-Jun-28 06:00N 31°32' E 121°22'611.7
2017-Jun-28 05:30N 31°28' E 121°27'5 9.5
2017-Jun-28 05:00N 31°25' E 121°32'510.4
2017-Jun-28 04:30N 31°22' E 121°37'611.4
2017-Jun-28 04:00N 31°20' E 121°43'611.8
2017-Jun-28 03:30N 31°17' E 121°49'611.2
2017-Jun-28 03:00N 31°16' E 121°55'5 9.5
2017-Jun-28 02:30N 31°15' E 122°01'5 9.0
2017-Jun-28 02:00N 31°14' E 122°06'5 9.7
2017-Jun-28 01:30N 31°11' E 122°11'4 8.8
2017-Jun-28 01:00N 31°08' E 122°15'4 7.9
2017-Jun-28 00:30N 31°06' E 122°19'611.4
2017-Jun-28 00:00N 31°06' E 122°25'5 8.7
2017-Jun-27 23:27N 31°07' E 122°31'4 9.0
2017-Jun-27 23:00N 31°10' E 122°34'3 5.9
2017-Jun-27 22:30N 31°11' E 122°38'0 0.1
2017-Jun-27 21:51N 31°11' E 122°38'0 0.0
2017-Jun-27 21:30N 31°11' E 122°38'0 0.0
2017-Jun-27 20:57N 31°11' E 122°38'0 0.0
2017-Jun-27 20:21N 31°11' E 122°38'0 0.0
2017-Jun-27 19:57N 31°11' E 122°38'0 0.1
2017-Jun-27 18:21N 31°11' E 122°38'0 0.0
2017-Jun-27 17:51N 31°11' E 122°38'0 0.0
2017-Jun-27 15:48N 31°11' E 122°38'0 0.1
2017-Jun-27 15:12N 31°11' E 122°38'0 0.0
2017-Jun-27 14:54N 31°11' E 122°38'0 0.1
2017-Jun-27 13:30N 31°11' E 122°38'0 0.0
2017-Jun-27 10:13N 31°11' E 122°38'0 1.9
2017-Jun-27 10:00N 31°10' E 122°38'2 3.9
2017-Jun-27 09:30N 31°12' E 122°40'5 8.7
2017-Jun-27 08:56N 31°15' E 122°44'  
2017-Jun-24 09:47N 24°21' E 118°49'1812.5
2017-Jun-24 08:22N 24°17' E 118°30'512.6
2017-Jun-24 07:56N 24°16' E 118°24'512.5
2017-Jun-24 07:30N 24°16' E 118°18'510.1
2017-Jun-24 07:00N 24°18' E 118°13'612.6
2017-Jun-24 06:30N 24°22' E 118°08'510.7
2017-Jun-24 06:01N 24°26' E 118°04'4 7.9
2017-Jun-24 05:31N 24°27' E 117°60'0 0.1
2017-Jun-24 04:08N 24°27' E 117°60'0 0.0
2017-Jun-24 03:38N 24°27' E 117°60'0 0.0
2017-Jun-24 03:20N 24°27' E 117°60'0 0.0
2017-Jun-24 01:38N 24°27' E 117°60'0 0.0
2017-Jun-24 01:02N 24°27' E 117°60'0 0.0
2017-Jun-24 00:32N 24°27' E 117°60'0 0.0
2017-Jun-24 00:26N 24°27' E 117°60'0 0.0
2017-Jun-23 20:20N 24°27' E 117°60'0 0.0
2017-Jun-23 19:50N 24°27' E 117°60'0 0.0
2017-Jun-23 19:26N 24°27' E 117°60'0 0.1
2017-Jun-23 18:44N 24°27' E 117°60'0 0.0
2017-Jun-23 18:26N 24°27' E 117°60'0 0.0
2017-Jun-23 16:38N 24°27' E 117°60'0 0.3
2017-Jun-23 16:26N 24°27' E 117°60'0 0.0
2017-Jun-23 08:14N 24°27' E 117°60'0 0.0
2017-Jun-23 08:00N 24°27' E 117°60'2 3.3
2017-Jun-23 07:30N 24°26' E 118°01'5 9.8
2017-Jun-23 07:01N 24°24' E 118°06'510.0
2017-Jun-23 06:31N 24°21' E 118°10'611.7
2017-Jun-23 06:00N 24°16' E 118°14'611.6
2017-Jun-23 05:30N 24°12' E 118°18'611.5
2017-Jun-23 05:00N 24°06' E 118°20'4 8.4
2017-Jun-23 04:30N 24°02' E 118°18'611.4
2017-Jun-23 04:00N 23°57' E 118°14'1012.7
2017-Jun-23 03:13N 23°49' E 118°08'  
Track history (hours):
 
Tides and Currents Weather Stations Pressure Air Temp Water Temp Dewpoint Dewpoint Depression Visibility Wind Speed Wind Dir Waves Ship Positions

Pine Galaxy

Last reported at 2017-Jul-01 15:48 UTC. Time now 2017-Dec-18 11:03 UTC.
Position N 31°53' E 120°54'.
Warning: this ship's position is months out of date.

Length 148 m; draft 5.4 m.

Type: Tanker. MMSI: 311772000.

Date/timePositionNaut miles runAvg speedWind from/ knotsBaromVisibWave heightAir tempDewpointWater temp
2017-Jul-01 15:48N 31°53' E 120°54'0 0.0
2017-Jul-01 15:18N 31°53' E 120°54'0 0.1
2017-Jul-01 14:46N 31°53' E 120°54'6 7.8
2017-Jul-01 14:00N 31°47' E 120°57'611.9
2017-Jul-01 13:29N 31°46' E 121°04'612.4
2017-Jul-01 13:00N 31°42' E 121°09'612.7
2017-Jul-01 12:30N 31°38' E 121°15'612.9
2017-Jul-01 12:00N 31°33' E 121°20'612.6
2017-Jul-01 11:30N 31°30' E 121°26'611.6
2017-Jul-01 11:00N 31°25' E 121°30'3 6.1
2017-Jul-01 10:30N 31°24' E 121°34'4 7.8
2017-Jul-01 10:00N 31°22' E 121°38'4 8.2
2017-Jul-01 09:30N 31°20' E 121°42'612.6
2017-Jul-01 09:01N 31°15' E 121°46'714.6
2017-Jul-01 08:31N 31°10' E 121°52'713.7
2017-Jul-01 08:00N 31°06' E 121°59'510.4
2017-Jul-01 07:30N 31°04' E 122°05'611.9
2017-Jul-01 07:00N 31°03' E 122°11'510.7
2017-Jul-01 06:30N 31°03' E 122°18'4 7.6
2017-Jul-01 06:00N 31°02' E 122°22'5 9.7
2017-Jul-01 05:29N 31°01' E 122°28'4 8.2
2017-Jul-01 04:59N 30°60' E 122°32'5 6.0
2017-Jul-01 04:04N 31°03' E 122°38'0 0.1
2017-Jul-01 03:58N 31°03' E 122°38'0 0.0
2017-Jun-30 19:40N 31°03' E 122°38'0 0.1
2017-Jun-30 18:40N 31°03' E 122°38'0 0.0
2017-Jun-30 15:16N 31°03' E 122°38'0 0.2
2017-Jun-30 14:52N 31°03' E 122°38'0 0.0
2017-Jun-30 14:28N 31°03' E 122°38'0 0.0
2017-Jun-30 13:55N 31°03' E 122°38'0 0.0
2017-Jun-30 13:28N 31°03' E 122°38'0 0.0
2017-Jun-30 12:58N 31°03' E 122°38'0 0.1
2017-Jun-30 11:28N 31°03' E 122°38'0 0.0
2017-Jun-30 10:58N 31°03' E 122°38'0 0.2
2017-Jun-30 10:23N 31°03' E 122°38'1 1.8
2017-Jun-30 10:00N 31°03' E 122°37'4 7.2
2017-Jun-30 09:30N 30°60' E 122°39'511.0
2017-Jun-30 09:00N 30°59' E 122°45'510.9
2017-Jun-30 08:30N 30°59' E 122°51'612.2
2017-Jun-30 07:58N 30°58' E 122°58'712.1
2017-Jun-30 07:23N 30°56' E 123°07'412.0
2017-Jun-30 07:00N 30°55' E 123°12'48 3.4
2017-Jun-29 16:46N 31°02' E 122°16'2 8.5
2017-Jun-29 16:30N 31°02' E 122°13'4 7.0
2017-Jun-29 15:59N 31°03' E 122°09'4 8.8
2017-Jun-29 15:29N 31°04' E 122°04'510.9
2017-Jun-29 15:00N 31°06' E 121°59'1312.8
2017-Jun-29 14:00N 31°14' E 121°47'714.2
2017-Jun-29 13:30N 31°19' E 121°42'611.4
2017-Jun-29 13:00N 31°23' E 121°36'5 9.7
2017-Jun-29 12:30N 31°25' E 121°31'511.0
2017-Jun-29 12:00N 31°29' E 121°27'612.5
2017-Jun-29 11:30N 31°32' E 121°21'713.5
2017-Jun-29 11:00N 31°38' E 121°15'713.6
2017-Jun-29 10:30N 31°42' E 121°09'712.9
2017-Jun-29 10:00N 31°46' E 121°03'712.2
2017-Jun-29 09:28N 31°48' E 120°56'7 0.3
2017-Jun-28 07:40N 31°46' E 121°03'413.5
2017-Jun-28 07:22N 31°43' E 121°07'513.0
2017-Jun-28 07:00N 31°41' E 121°12'612.7
2017-Jun-28 06:30N 31°36' E 121°17'612.4
2017-Jun-28 06:00N 31°32' E 121°22'611.7
2017-Jun-28 05:30N 31°28' E 121°27'5 9.5
2017-Jun-28 05:00N 31°25' E 121°32'510.4
2017-Jun-28 04:30N 31°22' E 121°37'611.4
2017-Jun-28 04:00N 31°20' E 121°43'611.8
2017-Jun-28 03:30N 31°17' E 121°49'611.2
2017-Jun-28 03:00N 31°16' E 121°55'5 9.5
2017-Jun-28 02:30N 31°15' E 122°01'5 9.0
2017-Jun-28 02:00N 31°14' E 122°06'5 9.7
2017-Jun-28 01:30N 31°11' E 122°11'4 8.8
2017-Jun-28 01:00N 31°08' E 122°15'4 7.9
2017-Jun-28 00:30N 31°06' E 122°19'611.4
2017-Jun-28 00:00N 31°06' E 122°25'5 8.7
2017-Jun-27 23:27N 31°07' E 122°31'4 9.0
2017-Jun-27 23:00N 31°10' E 122°34'3 5.9
2017-Jun-27 22:30N 31°11' E 122°38'0 0.1
2017-Jun-27 21:51N 31°11' E 122°38'0 0.0
2017-Jun-27 21:30N 31°11' E 122°38'0 0.0
2017-Jun-27 20:57N 31°11' E 122°38'0 0.0
2017-Jun-27 20:21N 31°11' E 122°38'0 0.0
2017-Jun-27 19:57N 31°11' E 122°38'0 0.1
2017-Jun-27 18:21N 31°11' E 122°38'0 0.0
2017-Jun-27 17:51N 31°11' E 122°38'0 0.0
2017-Jun-27 15:48N 31°11' E 122°38'0 0.1
2017-Jun-27 15:12N 31°11' E 122°38'0 0.0
2017-Jun-27 14:54N 31°11' E 122°38'0 0.1
2017-Jun-27 13:30N 31°11' E 122°38'0 0.0
2017-Jun-27 10:13N 31°11' E 122°38'0 1.9
2017-Jun-27 10:00N 31°10' E 122°38'2 3.9
2017-Jun-27 09:30N 31°12' E 122°40'5 8.7
2017-Jun-27 08:56N 31°15' E 122°44'  
2017-Jun-24 09:47N 24°21' E 118°49'1812.5
2017-Jun-24 08:22N 24°17' E 118°30'512.6
2017-Jun-24 07:56N 24°16' E 118°24'512.5
2017-Jun-24 07:30N 24°16' E 118°18'510.1
2017-Jun-24 07:00N 24°18' E 118°13'612.6
2017-Jun-24 06:30N 24°22' E 118°08'510.7
2017-Jun-24 06:01N 24°26' E 118°04'4 7.9
2017-Jun-24 05:31N 24°27' E 117°60'0 0.1
2017-Jun-24 04:08N 24°27' E 117°60'0 0.0
2017-Jun-24 03:38N 24°27' E 117°60'0 0.0
2017-Jun-24 03:20N 24°27' E 117°60'0 0.0
2017-Jun-24 01:38N 24°27' E 117°60'0 0.0
2017-Jun-24 01:02N 24°27' E 117°60'0 0.0
2017-Jun-24 00:32N 24°27' E 117°60'0 0.0
2017-Jun-24 00:26N 24°27' E 117°60'0 0.0
2017-Jun-23 20:20N 24°27' E 117°60'0 0.0
2017-Jun-23 19:50N 24°27' E 117°60'0 0.0
2017-Jun-23 19:26N 24°27' E 117°60'0 0.1
2017-Jun-23 18:44N 24°27' E 117°60'0 0.0
2017-Jun-23 18:26N 24°27' E 117°60'0 0.0
2017-Jun-23 16:38N 24°27' E 117°60'0 0.3
2017-Jun-23 16:26N 24°27' E 117°60'0 0.0
2017-Jun-23 08:14N 24°27' E 117°60'0 0.0
2017-Jun-23 08:00N 24°27' E 117°60'2 3.3
2017-Jun-23 07:30N 24°26' E 118°01'5 9.8
2017-Jun-23 07:01N 24°24' E 118°06'510.0
2017-Jun-23 06:31N 24°21' E 118°10'611.7
2017-Jun-23 06:00N 24°16' E 118°14'611.6
2017-Jun-23 05:30N 24°12' E 118°18'611.5
2017-Jun-23 05:00N 24°06' E 118°20'4 8.4
2017-Jun-23 04:30N 24°02' E 118°18'611.4
2017-Jun-23 04:00N 23°57' E 118°14'1012.7
2017-Jun-23 03:13N 23°49' E 118°08'  

Dump ship's entire track history